Portage Des Sioux, Missouri
Current Conditions -  °F | °C
As of 4:54 AM on Thursday 23 Oct 2014 (Local Time) from KSET Reporting Station
Haze Haze  
Wind Chill: 36°   Ceiling: Unl
Heat Index: 39°   Visibility: 6mi
Dew Point: 38°   Wind: 5mph
Humidity: 96%   Direction: 80°E
Pressure: 30.2"   Gusts: NA
Location:  38.92°N, 90.34°W
Report Text: KSET 230954Z AUTO 08004KT 6SM BR CLR 04/03 A3020 RMK AO2 SLP227 T00390033 $
Loading
Personal Weather Stations






























Interactive Weather Map
Tropical Storm Tracking
New forecast layout! Learn more

10-Day Weather Forecast

Advertisements
Track Severe Weather on mobile